createdAt,value
2023-01-29T00:02:10.813Z,83.89
2023-01-29T00:04:37.997Z,83.93
2023-01-29T00:07:05.114Z,85.90
2023-01-29T00:09:32.396Z,87.39
2023-01-29T00:11:59.490Z,88.80
2023-01-29T00:14:27.716Z,88.63
2023-01-29T00:16:55.128Z,87.32
2023-01-29T00:19:22.324Z,85.80
2023-01-29T00:21:49.456Z,86.36
2023-01-29T00:24:16.692Z,85.30
2023-01-29T00:26:44.204Z,85.52
2023-01-29T00:29:11.726Z,85.72
2023-01-29T00:31:38.991Z,83.70
2023-01-29T00:34:07.580Z,82.37
2023-01-29T00:36:34.714Z,82.65
2023-01-29T00:39:02.796Z,81.74
2023-01-29T00:41:50.729Z,80.07
2023-01-29T00:44:36.994Z,78.93
2023-01-29T00:47:04.977Z,78.94
2023-01-29T00:49:32.185Z,78.64
2023-01-29T00:52:25.535Z,79.00
2023-01-29T00:54:54.559Z,78.70
2023-01-29T00:57:23.007Z,79.50
2023-01-29T00:59:50.282Z,79.91
2023-01-29T01:02:35.897Z,79.42
2023-01-29T01:05:06.328Z,79.74
2023-01-29T01:07:34.385Z,80.15
2023-01-29T01:10:20.089Z,79.53
2023-01-29T01:12:56.006Z,80.28
2023-01-29T01:15:25.477Z,80.21
2023-01-29T01:17:57.989Z,81.11
2023-01-29T01:20:27.161Z,81.46
2023-01-29T01:22:54.870Z,81.86
2023-01-29T01:25:23.754Z,81.64
2023-01-29T01:27:55.457Z,81.22
2023-01-29T01:30:23.947Z,81.29
2023-01-29T01:32:51.561Z,80.78
2023-01-29T01:35:19.064Z,80.35
2023-01-29T01:37:46.175Z,79.95
2023-01-29T01:40:18.572Z,80.04
2023-01-29T01:42:51.135Z,79.30
2023-01-29T01:45:38.505Z,80.22
2023-01-29T01:48:05.633Z,81.31
2023-01-29T01:50:53.759Z,82.67
2023-01-29T01:53:26.804Z,82.88
2023-01-29T01:56:00.305Z,82.79
2023-01-29T01:58:51.796Z,82.92
2023-01-29T02:01:26.553Z,82.87
2023-01-29T02:04:25.149Z,83.12
2023-01-29T02:07:12.816Z,83.03
2023-01-29T02:09:46.464Z,82.07
2023-01-29T02:12:16.224Z,81.98
2023-01-29T02:14:44.344Z,80.09
2023-01-29T02:17:32.423Z,78.81
2023-01-29T02:20:14.709Z,76.84
2023-01-29T02:23:02.728Z,75.64
2023-01-29T02:26:04.371Z,74.63
2023-01-29T02:28:49.082Z,72.51
2023-01-29T02:31:41.603Z,72.15
2023-01-29T02:34:27.749Z,70.87
2023-01-29T02:37:09.619Z,70.66
2023-01-29T02:39:59.116Z,70.82
2023-01-29T02:42:37.806Z,70.43
2023-01-29T02:45:22.583Z,69.59
2023-01-29T02:48:02.017Z,69.63
2023-01-29T02:50:39.067Z,68.99
2023-01-29T02:53:12.779Z,69.74
2023-01-29T02:55:42.907Z,69.01
2023-01-29T02:58:53.164Z,68.52
2023-01-29T03:01:36.097Z,68.32
2023-01-29T03:04:10.157Z,67.93
2023-01-29T03:06:43.994Z,67.23
2023-01-29T03:09:20.623Z,67.63
2023-01-29T03:11:52.981Z,67.97
2023-01-29T03:14:54.065Z,67.93
2023-01-29T03:17:31.737Z,67.42
2023-01-29T03:19:59.853Z,66.65
2023-01-29T03:22:27.957Z,66.71
2023-01-29T03:25:18.730Z,66.00
2023-01-29T03:28:16.183Z,65.79
2023-01-29T03:31:11.125Z,66.08
2023-01-29T03:33:54.687Z,64.50
2023-01-29T03:36:37.949Z,64.40
2023-01-29T03:39:11.624Z,64.67
2023-01-29T03:42:10.228Z,64.60
2023-01-29T03:44:49.509Z,64.78
2023-01-29T03:47:48.329Z,65.68
2023-01-29T03:50:35.428Z,65.59
2023-01-29T03:53:07.680Z,65.52
2023-01-29T03:55:41.444Z,64.67
2023-01-29T03:58:33.262Z,64.76
2023-01-29T04:01:07.217Z,65.53
2023-01-29T04:03:37.732Z,65.18
2023-01-29T04:06:13.270Z,65.45
2023-01-29T04:09:04.665Z,65.54
2023-01-29T04:11:37.511Z,64.84
2023-01-29T04:14:07.055Z,65.20
2023-01-29T04:16:40.140Z,65.43
2023-01-29T04:19:20.861Z,64.99
2023-01-29T04:21:56.301Z,64.65
2023-01-29T04:24:23.548Z,64.00
2023-01-29T04:27:17.731Z,63.43
2023-01-29T04:30:10.025Z,63.10
2023-01-29T04:33:14.177Z,63.66
2023-01-29T04:36:22.859Z,63.79
2023-01-29T04:39:25.412Z,63.33
2023-01-29T04:41:58.201Z,63.66
2023-01-29T04:44:41.899Z,63.80
2023-01-29T04:47:33.357Z,64.09
2023-01-29T04:50:12.997Z,64.62
2023-01-29T04:52:51.088Z,65.32
2023-01-29T04:55:36.120Z,65.81
2023-01-29T04:58:21.184Z,65.82
2023-01-29T05:00:50.173Z,66.38
2023-01-29T05:03:17.576Z,65.71
2023-01-29T05:05:48.531Z,65.46
2023-01-29T05:08:17.863Z,65.46
2023-01-29T05:10:47.061Z,64.61
2023-01-29T05:13:15.409Z,64.35
2023-01-29T05:15:49.223Z,64.00
2023-01-29T05:18:16.680Z,64.94
2023-01-29T05:20:44.641Z,64.66
2023-01-29T05:23:21.763Z,64.80
2023-01-29T05:25:50.870Z,63.90
2023-01-29T05:28:18.973Z,63.91
2023-01-29T05:30:52.754Z,64.54
2023-01-29T05:33:31.794Z,66.05
2023-01-29T05:36:00.785Z,65.43
2023-01-29T05:38:28.122Z,65.98
2023-01-29T05:40:55.238Z,65.23
2023-01-29T05:43:25.070Z,64.60
2023-01-29T05:45:59.397Z,64.19
2023-01-29T05:48:29.124Z,63.47
2023-01-29T05:51:03.958Z,64.77
2023-01-29T05:53:32.156Z,64.99
2023-01-29T05:56:02.511Z,64.95
2023-01-29T05:58:34.162Z,64.71
2023-01-29T06:01:15.308Z,66.81
2023-01-29T06:03:42.506Z,65.81
2023-01-29T06:06:09.887Z,65.37
2023-01-29T06:08:37.292Z,65.39
2023-01-29T06:11:07.155Z,65.44
2023-01-29T06:13:34.461Z,65.38
2023-01-29T06:16:04.554Z,65.21
2023-01-29T06:18:31.654Z,64.49
2023-01-29T06:21:02.785Z,65.58
2023-01-29T06:23:31.134Z,66.21
2023-01-29T06:26:03.440Z,65.67
2023-01-29T06:28:31.201Z,64.74
2023-01-29T06:31:11.424Z,65.98
2023-01-29T06:33:43.581Z,65.77
2023-01-29T06:36:10.699Z,67.07
2023-01-29T06:38:37.842Z,66.86
2023-01-29T06:41:13.340Z,66.52
2023-01-29T06:43:40.504Z,66.74
2023-01-29T06:46:08.915Z,66.50
2023-01-29T06:48:36.348Z,65.56
2023-01-29T06:51:05.493Z,66.37
2023-01-29T06:53:34.621Z,65.52
2023-01-29T06:56:01.754Z,66.34
2023-01-29T06:58:28.867Z,66.01
2023-01-29T07:01:10.367Z,66.96
2023-01-29T07:03:37.881Z,65.38
2023-01-29T07:06:06.240Z,66.39
2023-01-29T07:08:37.005Z,66.36
2023-01-29T07:11:05.280Z,65.50
2023-01-29T07:13:32.774Z,66.47
2023-01-29T07:16:01.535Z,66.46
2023-01-29T07:18:29.633Z,65.61
2023-01-29T07:20:57.214Z,65.45
2023-01-29T07:23:24.636Z,65.62
2023-01-29T07:25:51.938Z,65.62
2023-01-29T07:28:20.714Z,65.46
2023-01-29T07:30:48.090Z,65.08
2023-01-29T07:33:15.229Z,66.29
2023-01-29T07:35:43.639Z,66.58
2023-01-29T07:38:11.654Z,65.47
2023-01-29T07:40:38.967Z,66.24
2023-01-29T07:43:07.722Z,67.27
2023-01-29T07:45:39.497Z,64.90
2023-01-29T07:48:10.065Z,64.59
2023-01-29T07:50:37.520Z,65.27
2023-01-29T07:53:04.826Z,65.12
2023-01-29T07:55:33.414Z,64.90
2023-01-29T07:58:04.048Z,64.37
2023-01-29T08:00:31.940Z,64.97
2023-01-29T08:03:04.273Z,65.00
2023-01-29T08:05:31.446Z,63.22
2023-01-29T08:08:06.498Z,63.60
2023-01-29T08:10:39.221Z,62.82
2023-01-29T08:13:07.267Z,61.92
2023-01-29T08:15:37.186Z,60.97
2023-01-29T08:18:06.091Z,62.14
2023-01-29T08:20:33.464Z,62.99
2023-01-29T08:23:06.016Z,63.87
2023-01-29T08:25:34.768Z,62.47
2023-01-29T08:28:02.407Z,60.14
2023-01-29T08:30:31.879Z,60.69
2023-01-29T08:32:59.145Z,60.96
2023-01-29T08:35:26.869Z,62.75
2023-01-29T08:38:03.309Z,63.06
2023-01-29T08:40:33.000Z,60.58
2023-01-29T08:43:02.975Z,61.86
2023-01-29T08:45:36.832Z,62.36
2023-01-29T08:48:04.561Z,62.67
2023-01-29T08:50:32.488Z,62.57
2023-01-29T08:53:01.057Z,61.93
2023-01-29T08:55:29.343Z,61.66
2023-01-29T08:57:59.435Z,60.21
2023-01-29T09:00:26.744Z,60.84
2023-01-29T09:02:53.891Z,60.80
2023-01-29T09:05:21.096Z,61.12
2023-01-29T09:07:48.207Z,60.11
2023-01-29T09:10:16.425Z,61.23
2023-01-29T09:12:43.787Z,61.09
2023-01-29T09:15:11.483Z,60.12
2023-01-29T09:17:38.926Z,60.25
2023-01-29T09:20:06.794Z,59.65
2023-01-29T09:22:34.248Z,60.53
2023-01-29T09:25:01.372Z,61.02
2023-01-29T09:27:30.695Z,59.34
2023-01-29T09:29:57.822Z,60.56
2023-01-29T09:32:52.097Z,61.12
2023-01-29T09:35:12.222Z,60.38
2023-01-29T09:37:39.378Z,60.24
2023-01-29T09:40:07.472Z,59.75
2023-01-29T09:42:44.217Z,59.06
2023-01-29T09:45:16.590Z,60.13
2023-01-29T09:47:44.885Z,60.14
2023-01-29T09:50:14.940Z,60.43
2023-01-29T09:53:16.729Z,61.62
2023-01-29T09:55:56.311Z,60.51
2023-01-29T09:58:29.754Z,61.86
2023-01-29T10:01:26.966Z,60.76
2023-01-29T10:04:15.480Z,62.52
2023-01-29T10:06:54.750Z,61.56
2023-01-29T10:09:42.989Z,61.57
2023-01-29T10:12:21.071Z,61.42
2023-01-29T10:15:07.275Z,61.12
2023-01-29T10:17:37.318Z,60.50
2023-01-29T10:20:33.787Z,60.69
2023-01-29T10:23:15.841Z,60.23
2023-01-29T10:25:46.167Z,60.79
2023-01-29T10:28:38.267Z,60.40
2023-01-29T10:31:16.589Z,60.29
2023-01-29T10:34:01.414Z,60.73
2023-01-29T10:36:38.790Z,61.16
2023-01-29T10:39:05.974Z,61.20
2023-01-29T10:42:01.295Z,62.09
2023-01-29T10:44:57.593Z,61.26
2023-01-29T10:47:36.478Z,61.01
2023-01-29T10:50:24.286Z,61.02
2023-01-29T10:53:20.838Z,59.89
2023-01-29T10:55:53.642Z,60.37
2023-01-29T10:58:41.993Z,59.44
2023-01-29T11:01:10.915Z,60.95
2023-01-29T11:03:38.288Z,60.80
2023-01-29T11:06:17.667Z,61.74
2023-01-29T11:09:02.950Z,60.53
2023-01-29T11:11:46.243Z,59.56
2023-01-29T11:14:27.141Z,59.98
2023-01-29T11:16:54.649Z,61.08
2023-01-29T11:19:37.907Z,61.03
2023-01-29T11:22:05.080Z,59.64
2023-01-29T11:24:32.259Z,61.12
2023-01-29T11:27:00.565Z,61.55
2023-01-29T11:29:27.879Z,61.33
2023-01-29T11:31:56.802Z,60.77
2023-01-29T11:34:27.721Z,60.31
2023-01-29T11:37:15.141Z,61.70
2023-01-29T11:39:48.930Z,61.56
2023-01-29T11:42:23.464Z,61.35
2023-01-29T11:44:50.589Z,61.03
2023-01-29T11:47:21.409Z,59.83
2023-01-29T11:49:51.014Z,59.90
2023-01-29T11:52:22.013Z,60.35
2023-01-29T11:54:58.220Z,61.76
2023-01-29T11:57:35.640Z,61.50
2023-01-29T12:00:19.904Z,61.54
2023-01-29T12:02:53.959Z,60.72
2023-01-29T12:05:26.776Z,61.31
2023-01-29T12:08:00.125Z,61.34
2023-01-29T12:10:37.646Z,61.75
2023-01-29T12:13:26.775Z,61.81
2023-01-29T12:16:39.947Z,62.26
2023-01-29T12:19:25.625Z,61.34
2023-01-29T12:22:04.016Z,60.79
2023-01-29T12:24:33.906Z,60.76
2023-01-29T12:27:18.971Z,61.91
2023-01-29T12:29:50.043Z,62.71
2023-01-29T12:32:16.976Z,62.20
2023-01-29T12:35:08.151Z,62.47
2023-01-29T12:37:41.963Z,62.37
2023-01-29T12:40:17.584Z,63.06
2023-01-29T12:42:50.508Z,62.69
2023-01-29T12:45:23.854Z,63.00
2023-01-29T12:48:06.059Z,63.77
2023-01-29T12:50:36.429Z,64.22
2023-01-29T12:53:26.886Z,65.06
2023-01-29T12:55:59.057Z,64.19
2023-01-29T12:58:45.565Z,64.94
2023-01-29T13:01:16.987Z,66.31
2023-01-29T13:03:53.954Z,67.84
2023-01-29T13:06:31.299Z,66.38
2023-01-29T13:09:07.164Z,65.66
2023-01-29T13:11:43.880Z,65.60
2023-01-29T13:14:42.381Z,65.11
2023-01-29T13:17:23.530Z,65.68
2023-01-29T13:19:54.255Z,65.94
2023-01-29T13:22:35.531Z,66.11
2023-01-29T13:25:05.471Z,65.28
2023-01-29T13:27:35.498Z,66.15
2023-01-29T13:30:03.861Z,66.01
2023-01-29T13:32:35.088Z,66.19
2023-01-29T13:35:14.271Z,66.08
2023-01-29T13:37:48.874Z,66.07
2023-01-29T13:40:26.988Z,67.55
2023-01-29T13:42:57.267Z,68.07
2023-01-29T13:45:27.980Z,68.03
2023-01-29T13:48:10.417Z,66.75
2023-01-29T13:50:43.159Z,67.35
2023-01-29T13:53:23.031Z,67.16
2023-01-29T13:55:50.205Z,67.28
2023-01-29T13:58:32.453Z,66.72
2023-01-29T14:01:01.545Z,66.89
2023-01-29T14:03:35.923Z,67.51
2023-01-29T14:06:38.604Z,68.62
2023-01-29T14:09:37.428Z,69.08
2023-01-29T14:12:36.296Z,68.61
2023-01-29T14:15:27.827Z,68.60
2023-01-29T14:18:19.790Z,69.00
2023-01-29T14:20:58.784Z,68.72
2023-01-29T14:23:35.931Z,68.60
2023-01-29T14:26:06.254Z,68.24
2023-01-29T14:28:35.432Z,67.07
2023-01-29T14:31:03.801Z,66.59
2023-01-29T14:33:38.185Z,66.98
2023-01-29T14:36:15.687Z,67.93
2023-01-29T14:38:53.851Z,67.68
2023-01-29T14:41:29.729Z,67.32
2023-01-29T14:44:35.615Z,68.52
2023-01-29T14:47:03.774Z,68.06
2023-01-29T14:49:49.673Z,69.23
2023-01-29T14:52:19.118Z,68.04
2023-01-29T14:54:48.621Z,69.40
2023-01-29T14:57:18.135Z,67.19
2023-01-29T15:00:17.612Z,68.88
2023-01-29T15:02:46.256Z,69.09
2023-01-29T15:05:29.048Z,69.00
2023-01-29T15:08:03.367Z,68.42
2023-01-29T15:11:14.062Z,70.48
2023-01-29T15:13:56.236Z,70.43
2023-01-29T15:16:30.591Z,70.75
2023-01-29T15:19:13.053Z,70.69
2023-01-29T15:21:40.154Z,71.09
2023-01-29T15:24:07.590Z,71.33
2023-01-29T15:26:36.521Z,70.68
2023-01-29T15:29:05.966Z,69.74
2023-01-29T15:31:35.569Z,68.71
2023-01-29T15:34:07.720Z,68.46
2023-01-29T15:36:37.184Z,69.64
2023-01-29T15:39:10.114Z,70.37
2023-01-29T15:41:37.295Z,70.17
2023-01-29T15:44:10.636Z,71.51
2023-01-29T15:46:41.002Z,72.52
2023-01-29T15:49:11.797Z,73.25
2023-01-29T15:51:39.538Z,72.71
2023-01-29T15:54:15.491Z,73.06
2023-01-29T15:56:47.368Z,74.47
2023-01-29T15:59:26.708Z,74.63
2023-01-29T16:01:54.506Z,75.38
2023-01-29T16:04:27.010Z,75.27
2023-01-29T16:06:55.565Z,75.84
2023-01-29T16:09:26.150Z,74.46
2023-01-29T16:11:57.483Z,76.18
2023-01-29T16:14:26.219Z,76.64
2023-01-29T16:16:54.422Z,77.18
2023-01-29T16:19:27.723Z,77.11
2023-01-29T16:22:01.374Z,77.34
2023-01-29T16:24:31.134Z,77.18
2023-01-29T16:27:02.281Z,76.40
2023-01-29T16:29:32.899Z,76.31
2023-01-29T16:32:02.829Z,75.38
2023-01-29T16:34:36.391Z,74.98
2023-01-29T16:37:07.370Z,76.02
2023-01-29T16:39:39.647Z,75.86
2023-01-29T16:42:13.080Z,75.83
2023-01-29T16:44:47.074Z,75.53
2023-01-29T16:47:43.495Z,74.93
2023-01-29T16:50:43.234Z,75.68
2023-01-29T16:53:23.406Z,76.86
2023-01-29T16:55:52.617Z,75.28
2023-01-29T16:58:25.715Z,75.19
2023-01-29T17:00:56.769Z,76.86
2023-01-29T17:03:27.740Z,78.55
2023-01-29T17:05:55.467Z,78.35
2023-01-29T17:08:33.878Z,76.06
2023-01-29T17:11:01.816Z,76.38
2023-01-29T17:13:36.516Z,77.24
2023-01-29T17:16:22.573Z,76.32
2023-01-29T17:18:49.929Z,76.27
2023-01-29T17:21:17.137Z,76.65
2023-01-29T17:23:44.222Z,77.07
2023-01-29T17:26:13.760Z,76.77
2023-01-29T17:28:42.329Z,76.86
2023-01-29T17:31:10.152Z,77.22
2023-01-29T17:33:43.186Z,76.58
2023-01-29T17:36:15.255Z,76.14
2023-01-29T17:38:42.671Z,76.13
2023-01-29T17:41:26.951Z,74.97
2023-01-29T17:43:54.500Z,75.32
2023-01-29T17:46:22.239Z,76.30
2023-01-29T17:48:49.645Z,77.13
2023-01-29T17:51:18.175Z,76.04
2023-01-29T17:53:46.980Z,75.56
2023-01-29T17:56:21.568Z,76.25
2023-01-29T17:58:48.706Z,75.56
2023-01-29T18:01:15.874Z,75.10
2023-01-29T18:03:46.231Z,75.64
2023-01-29T18:06:28.543Z,76.36
2023-01-29T18:08:56.634Z,75.61
2023-01-29T18:11:24.236Z,76.18
2023-01-29T18:13:51.697Z,76.50
2023-01-29T18:16:18.979Z,76.11
2023-01-29T18:18:46.148Z,75.85
2023-01-29T18:21:13.300Z,76.25
2023-01-29T18:23:41.063Z,76.20
2023-01-29T18:26:11.855Z,74.65
2023-01-29T18:28:39.307Z,74.65
2023-01-29T18:31:06.638Z,74.31
2023-01-29T18:33:35.274Z,74.36
2023-01-29T18:36:05.020Z,74.82
2023-01-29T18:38:35.085Z,73.84
2023-01-29T18:41:10.542Z,73.26
2023-01-29T18:43:39.558Z,73.19
2023-01-29T18:46:07.612Z,73.06
2023-01-29T18:48:35.264Z,72.43
2023-01-29T18:51:02.563Z,73.26
2023-01-29T18:53:29.685Z,73.47
2023-01-29T18:56:06.823Z,72.87
2023-01-29T18:58:38.238Z,74.43
2023-01-29T19:01:09.648Z,72.84
2023-01-29T19:03:40.762Z,72.90
2023-01-29T19:06:09.989Z,73.20
2023-01-29T19:08:37.390Z,73.54
2023-01-29T19:11:08.228Z,74.11
2023-01-29T19:13:36.746Z,74.82
2023-01-29T19:16:09.386Z,75.83
2023-01-29T19:18:37.075Z,75.16
2023-01-29T19:21:11.855Z,74.65
2023-01-29T19:23:46.250Z,74.53
2023-01-29T19:26:14.868Z,74.88
2023-01-29T19:31:40.563Z,74.50
2023-01-29T19:34:08.266Z,75.45
2023-01-29T19:36:36.452Z,74.90
2023-01-29T19:39:05.098Z,73.84
2023-01-29T19:41:32.678Z,73.50
2023-01-29T19:43:59.828Z,72.45
2023-01-29T19:46:27.044Z,73.12
2023-01-29T19:48:57.044Z,72.47
2023-01-29T19:51:24.603Z,72.19
2023-01-29T19:53:52.015Z,72.14
2023-01-29T19:56:20.044Z,73.00
2023-01-29T19:58:47.638Z,72.66
2023-01-29T20:01:20.671Z,73.02
2023-01-29T20:03:49.259Z,72.23
2023-01-29T20:06:22.894Z,71.84
2023-01-29T20:08:50.260Z,73.34
2023-01-29T20:11:20.357Z,72.90
2023-01-29T20:13:49.778Z,73.10
2023-01-29T20:16:18.129Z,73.59
2023-01-29T20:18:45.341Z,72.82
2023-01-29T20:21:15.112Z,72.44
2023-01-29T20:23:44.850Z,72.01
2023-01-29T20:26:15.049Z,71.79
2023-01-29T20:28:43.334Z,72.81
2023-01-29T20:31:10.630Z,72.87
2023-01-29T20:33:39.461Z,72.36
2023-01-29T20:36:10.210Z,71.06
2023-01-29T20:38:37.586Z,70.16
2023-01-29T20:41:16.210Z,71.52
2023-01-29T20:43:44.775Z,70.94
2023-01-29T20:46:12.714Z,71.43
2023-01-29T20:48:40.179Z,71.68
2023-01-29T20:51:09.955Z,71.63
2023-01-29T20:53:37.359Z,71.67
2023-01-29T20:56:05.245Z,72.59
2023-01-29T20:58:32.597Z,71.77
2023-01-29T21:01:00.357Z,73.34
2023-01-29T21:03:27.903Z,74.64
2023-01-29T21:05:59.179Z,74.25
2023-01-29T21:08:26.432Z,75.50
2023-01-29T21:10:53.824Z,75.59
2023-01-29T21:13:21.254Z,75.31
2023-01-29T21:15:51.166Z,76.09
2023-01-29T21:18:18.331Z,75.30
2023-01-29T21:20:45.640Z,74.19
2023-01-29T21:23:12.749Z,74.03
2023-01-29T21:25:41.283Z,73.95
2023-01-29T21:28:08.543Z,77.63
2023-01-29T21:30:35.717Z,78.42
2023-01-29T21:33:03.262Z,76.46
2023-01-29T21:35:30.365Z,75.69
2023-01-29T21:37:57.836Z,73.85
2023-01-29T21:40:25.449Z,74.55
2023-01-29T21:43:11.572Z,74.80
2023-01-29T21:45:39.994Z,74.63
2023-01-29T21:48:08.227Z,74.95
2023-01-29T21:50:35.628Z,75.08
2023-01-29T21:53:02.832Z,74.47
2023-01-29T21:55:30.134Z,76.76
2023-01-29T21:57:57.250Z,76.69
2023-01-29T22:00:24.356Z,78.41
2023-01-29T22:02:51.529Z,78.51
2023-01-29T22:05:20.185Z,78.53
2023-01-29T22:07:48.865Z,78.63
2023-01-29T22:10:18.600Z,78.94
2023-01-29T22:12:46.876Z,79.61
2023-01-29T22:15:14.979Z,78.49
2023-01-29T22:17:42.580Z,79.31
2023-01-29T22:20:12.532Z,78.29
2023-01-29T22:22:39.682Z,77.41
2023-01-29T22:25:07.217Z,76.87
2023-01-29T22:27:34.684Z,76.49
2023-01-29T22:30:01.939Z,77.40
2023-01-29T22:32:32.105Z,78.43
2023-01-29T22:34:59.835Z,78.44
2023-01-29T22:37:27.001Z,76.77
2023-01-29T22:39:54.062Z,78.82
2023-01-29T22:42:21.249Z,80.15
2023-01-29T22:44:48.727Z,79.69
2023-01-29T22:47:16.171Z,78.00
2023-01-29T22:49:45.690Z,77.88
2023-01-29T22:52:12.903Z,78.86
2023-01-29T22:54:42.506Z,78.80
2023-01-29T22:57:15.078Z,78.22
2023-01-29T22:59:42.186Z,78.44
2023-01-29T23:02:10.010Z,77.50
2023-01-29T23:04:37.306Z,79.51
2023-01-29T23:07:04.690Z,77.41
2023-01-29T23:09:31.739Z,77.61
2023-01-29T23:11:58.897Z,77.31
2023-01-29T23:14:26.036Z,76.30
2023-01-29T23:16:53.143Z,77.01
2023-01-29T23:19:20.392Z,76.58
2023-01-29T23:21:47.560Z,76.06
2023-01-29T23:24:14.690Z,75.66
2023-01-29T23:27:00.551Z,75.34
2023-01-29T23:29:27.630Z,74.89
2023-01-29T23:31:54.764Z,73.94
2023-01-29T23:34:22.042Z,75.91
2023-01-29T23:36:49.163Z,76.28
2023-01-29T23:39:16.737Z,77.36
2023-01-29T23:41:44.347Z,77.40
2023-01-29T23:44:11.417Z,77.37
2023-01-29T23:46:38.755Z,79.50
2023-01-29T23:49:07.378Z,78.60
2023-01-29T23:51:34.787Z,78.88
2023-01-29T23:54:01.873Z,79.41
2023-01-29T23:56:29.058Z,80.58
2023-01-29T23:58:57.688Z,81.80
